Mission Hills, California
Current Conditions -  °F | °C
As of 5:35 PM on Monday 24 Nov 2014 (Local Time) from KLPC Reporting Station
Clear Clear  
Wind Chill: 61°   Ceiling: Unl
Heat Index: 61°   Visibility: 10mi
Dew Point: 41°   Wind: 0mph
Humidity: 48%   Direction: NA
Pressure: 30.26"   Gusts: NA
Location:  34.69°N, 120.44°W
Report Text: KLPC 250135Z AUTO 00000KT 10SM CLR 16/05 A3026 RMK AO1
Loading
Personal Weather Stations






























Interactive Weather Map New forecast layout! Learn more

10-Day Weather Forecast

Advertisements
Track Severe Weather on mobile